sensor_id;sensor_type;location;lat;lon;timestamp;pressure;altitude;pressure_sealevel;temperature;humidity
71917;BME280;59793;46.506;6.674;2023-12-07T00:01:25;97361.97;;;4.87;69.24
71917;BME280;59793;46.506;6.674;2023-12-07T00:03:51;97365.44;;;4.96;68.79
71917;BME280;59793;46.506;6.674;2023-12-07T00:06:18;97370.75;;;4.91;69.04
71917;BME280;59793;46.506;6.674;2023-12-07T00:08:44;97376.97;;;4.95;68.49
71917;BME280;59793;46.506;6.674;2023-12-07T00:11:11;97418.59;;;5.00;68.78
71917;BME280;59793;46.506;6.674;2023-12-07T00:13:36;97413.00;;;4.93;68.96
71917;BME280;59793;46.506;6.674;2023-12-07T00:16:02;97302.78;;;4.23;68.95
71917;BME280;59793;46.506;6.674;2023-12-07T00:18:27;97374.41;;;4.67;69.22
71917;BME280;59793;46.506;6.674;2023-12-07T00:20:56;97393.44;;;4.68;69.90
71917;BME280;59793;46.506;6.674;2023-12-07T00:23:21;97357.84;;;4.36;70.57
71917;BME280;59793;46.506;6.674;2023-12-07T00:25:50;97337.66;;;4.27;70.54
71917;BME280;59793;46.506;6.674;2023-12-07T00:28:17;97341.72;;;4.34;70.75
71917;BME280;59793;46.506;6.674;2023-12-07T00:30:44;97400.66;;;4.85;71.06
71917;BME280;59793;46.506;6.674;2023-12-07T00:33:11;97408.94;;;5.00;70.73
71917;BME280;59793;46.506;6.674;2023-12-07T00:35:37;97418.59;;;5.00;70.21
71917;BME280;59793;46.506;6.674;2023-12-07T00:38:04;97405.88;;;4.85;70.24
71917;BME280;59793;46.506;6.674;2023-12-07T00:40:31;97425.47;;;4.96;70.14
71917;BME280;59793;46.506;6.674;2023-12-07T00:43:01;97407.06;;;4.78;70.06
71917;BME280;59793;46.506;6.674;2023-12-07T00:45:27;97328.47;;;4.30;69.17
71917;BME280;59793;46.506;6.674;2023-12-07T00:47:52;97430.50;;;5.06;69.33
71917;BME280;59793;46.506;6.674;2023-12-07T00:50:18;97438.34;;;4.92;69.44
71917;BME280;59793;46.506;6.674;2023-12-07T00:52:43;97398.00;;;4.48;70.62
71917;BME280;59793;46.506;6.674;2023-12-07T00:55:10;97436.03;;;4.77;70.43
71917;BME280;59793;46.506;6.674;2023-12-07T00:57:36;97417.22;;;4.66;70.39
71917;BME280;59793;46.506;6.674;2023-12-07T01:00:01;97360.56;;;4.17;71.09
71917;BME280;59793;46.506;6.674;2023-12-07T01:02:27;97417.91;;;4.58;71.30
71917;BME280;59793;46.506;6.674;2023-12-07T01:04:53;97432.88;;;4.66;70.94
71917;BME280;59793;46.506;6.674;2023-12-07T01:07:19;97434.63;;;4.71;70.85
71917;BME280;59793;46.506;6.674;2023-12-07T01:09:47;97443.44;;;4.61;71.45
71917;BME280;59793;46.506;6.674;2023-12-07T01:12:12;97444.97;;;4.62;71.54
71917;BME280;59793;46.506;6.674;2023-12-07T01:14:38;97380.56;;;4.07;71.36
71917;BME280;59793;46.506;6.674;2023-12-07T01:17:04;97451.44;;;4.37;72.86
71917;BME280;59793;46.506;6.674;2023-12-07T01:19:29;97421.41;;;4.12;73.49
71917;BME280;59793;46.506;6.674;2023-12-07T01:21:55;97414.47;;;4.21;73.78
71917;BME280;59793;46.506;6.674;2023-12-07T01:24:20;97394.28;;;3.99;73.60
71917;BME280;59793;46.506;6.674;2023-12-07T01:26:45;97345.31;;;3.69;73.06
71917;BME280;59793;46.506;6.674;2023-12-07T01:29:11;97378.91;;;3.98;72.12
71917;BME280;59793;46.506;6.674;2023-12-07T01:31:37;97381.50;;;3.84;72.35
71917;BME280;59793;46.506;6.674;2023-12-07T01:34:03;97399.19;;;4.01;71.68
71917;BME280;59793;46.506;6.674;2023-12-07T01:36:28;97432.03;;;4.29;71.48
71917;BME280;59793;46.506;6.674;2023-12-07T01:38:53;97443.44;;;4.34;71.37
71917;BME280;59793;46.506;6.674;2023-12-07T01:41:19;97475.03;;;4.60;70.88
71917;BME280;59793;46.506;6.674;2023-12-07T01:43:47;97394.84;;;4.10;70.58
71917;BME280;59793;46.506;6.674;2023-12-07T01:46:13;97384.44;;;4.10;70.48
71917;BME280;59793;46.506;6.674;2023-12-07T01:48:39;97480.34;;;4.68;70.48
71917;BME280;59793;46.506;6.674;2023-12-07T01:51:06;97485.38;;;4.65;70.23
71917;BME280;59793;46.506;6.674;2023-12-07T01:53:32;97408.06;;;4.00;70.56
71917;BME280;59793;46.506;6.674;2023-12-07T01:55:58;97468.56;;;4.43;70.41
71917;BME280;59793;46.506;6.674;2023-12-07T01:58:24;97488.34;;;4.44;70.05
71917;BME280;59793;46.506;6.674;2023-12-07T02:00:50;97476.34;;;4.16;71.25
71917;BME280;59793;46.506;6.674;2023-12-07T02:03:17;97484.66;;;4.04;72.36
71917;BME280;59793;46.506;6.674;2023-12-07T02:05:45;97436.16;;;3.56;73.00
71917;BME280;59793;46.506;6.674;2023-12-07T02:08:11;97310.91;;;2.74;73.18
71917;BME280;59793;46.506;6.674;2023-12-07T02:10:37;97465.47;;;3.81;73.42
71917;BME280;59793;46.506;6.674;2023-12-07T02:13:02;97474.88;;;3.96;72.88
71917;BME280;59793;46.506;6.674;2023-12-07T02:15:28;97413.50;;;3.57;73.00
71917;BME280;59793;46.506;6.674;2023-12-07T02:17:58;97470.38;;;4.15;72.38
71917;BME280;59793;46.506;6.674;2023-12-07T02:20:43;97391.22;;;3.65;71.79
71917;BME280;59793;46.506;6.674;2023-12-07T02:23:17;97469.94;;;3.94;73.00
71917;BME280;59793;46.506;6.674;2023-12-07T02:25:53;97456.34;;;3.97;72.47
71917;BME280;59793;46.506;6.674;2023-12-07T02:28:19;97438.94;;;3.79;72.69
71917;BME280;59793;46.506;6.674;2023-12-07T02:30:45;97479.03;;;3.97;72.48
71917;BME280;59793;46.506;6.674;2023-12-07T02:33:11;97449.47;;;3.88;71.84
71917;BME280;59793;46.506;6.674;2023-12-07T02:35:38;97414.94;;;3.63;71.64
71917;BME280;59793;46.506;6.674;2023-12-07T02:38:06;97425.31;;;3.68;71.95
71917;BME280;59793;46.506;6.674;2023-12-07T02:40:34;97415.34;;;3.70;71.20
71917;BME280;59793;46.506;6.674;2023-12-07T02:43:03;97478.72;;;3.98;71.46
71917;BME280;59793;46.506;6.674;2023-12-07T02:45:29;97405.69;;;3.57;71.42
71917;BME280;59793;46.506;6.674;2023-12-07T02:47:57;97395.63;;;3.50;71.36
71917;BME280;59793;46.506;6.674;2023-12-07T02:50:23;97446.59;;;3.89;71.08
71917;BME280;59793;46.506;6.674;2023-12-07T02:52:48;97475.94;;;4.08;70.69
71917;BME280;59793;46.506;6.674;2023-12-07T02:55:14;97439.91;;;3.83;70.73
71917;BME280;59793;46.506;6.674;2023-12-07T02:57:39;97466.03;;;3.78;71.61
71917;BME280;59793;46.506;6.674;2023-12-07T03:00:06;97452.84;;;3.55;72.25
71917;BME280;59793;46.506;6.674;2023-12-07T03:02:34;97430.06;;;3.28;72.47
71917;BME280;59793;46.506;6.674;2023-12-07T03:05:01;97447.25;;;3.29;72.82
71917;BME280;59793;46.506;6.674;2023-12-07T03:07:27;97475.72;;;3.58;72.52
71917;BME280;59793;46.506;6.674;2023-12-07T03:09:52;97474.47;;;3.56;72.32
71917;BME280;59793;46.506;6.674;2023-12-07T03:12:18;97473.84;;;3.64;72.10
71917;BME280;59793;46.506;6.674;2023-12-07T03:14:43;97446.47;;;3.48;71.32
71917;BME280;59793;46.506;6.674;2023-12-07T03:17:09;97480.59;;;3.65;71.38
71917;BME280;59793;46.506;6.674;2023-12-07T03:19:38;97449.41;;;3.41;70.96
71917;BME280;59793;46.506;6.674;2023-12-07T03:22:04;97431.28;;;3.36;71.29
71917;BME280;59793;46.506;6.674;2023-12-07T03:24:29;97379.81;;;2.95;70.96
71917;BME280;59793;46.506;6.674;2023-12-07T03:26:56;97438.72;;;3.43;70.65
71917;BME280;59793;46.506;6.674;2023-12-07T03:29:23;97470.56;;;3.72;70.07
71917;BME280;59793;46.506;6.674;2023-12-07T03:31:49;97471.09;;;3.55;70.75
71917;BME280;59793;46.506;6.674;2023-12-07T03:34:15;97472.59;;;3.24;71.64
71917;BME280;59793;46.506;6.674;2023-12-07T03:36:42;97452.31;;;3.02;72.17
71917;BME280;59793;46.506;6.674;2023-12-07T03:39:08;97453.88;;;3.03;72.21
71917;BME280;59793;46.506;6.674;2023-12-07T03:41:33;97456.41;;;3.08;73.14
71917;BME280;59793;46.506;6.674;2023-12-07T03:43:59;97420.38;;;2.77;73.58
71917;BME280;59793;46.506;6.674;2023-12-07T03:46:24;97427.63;;;2.80;73.66
71917;BME280;59793;46.506;6.674;2023-12-07T03:48:51;97396.53;;;2.70;73.42
71917;BME280;59793;46.506;6.674;2023-12-07T03:51:16;97353.69;;;2.44;73.30
71917;BME280;59793;46.506;6.674;2023-12-07T03:53:43;97451.63;;;3.15;73.04
71917;BME280;59793;46.506;6.674;2023-12-07T03:56:09;97383.63;;;2.84;72.96
71917;BME280;59793;46.506;6.674;2023-12-07T03:58:34;97447.47;;;3.33;72.92
71917;BME280;59793;46.506;6.674;2023-12-07T04:01:02;97384.59;;;2.88;71.99
71917;BME280;59793;46.506;6.674;2023-12-07T04:03:27;97415.41;;;3.19;70.70
71917;BME280;59793;46.506;6.674;2023-12-07T04:05:57;97449.84;;;3.48;70.43
71917;BME280;59793;46.506;6.674;2023-12-07T04:08:22;97358.94;;;2.81;70.18
71917;BME280;59793;46.506;6.674;2023-12-07T04:10:48;97356.31;;;2.81;70.32
71917;BME280;59793;46.506;6.674;2023-12-07T04:13:13;97395.34;;;3.00;69.42
71917;BME280;59793;46.506;6.674;2023-12-07T04:15:38;97466.03;;;3.45;69.48
71917;BME280;59793;46.506;6.674;2023-12-07T04:18:04;97452.09;;;3.17;69.98
71917;BME280;59793;46.506;6.674;2023-12-07T04:20:30;97389.72;;;2.74;69.63
71917;BME280;59793;46.506;6.674;2023-12-07T04:22:55;97363.94;;;2.59;69.93
71917;BME280;59793;46.506;6.674;2023-12-07T04:25:22;97451.97;;;3.08;68.86
71917;BME280;59793;46.506;6.674;2023-12-07T04:27:48;97478.22;;;3.12;70.50
71917;BME280;59793;46.506;6.674;2023-12-07T04:30:14;97444.00;;;2.81;72.01
71917;BME280;59793;46.506;6.674;2023-12-07T04:32:39;97470.03;;;3.00;71.23
71917;BME280;59793;46.506;6.674;2023-12-07T04:35:07;97481.00;;;2.97;70.93
71917;BME280;59793;46.506;6.674;2023-12-07T04:37:34;97482.84;;;2.96;71.58
71917;BME280;59793;46.506;6.674;2023-12-07T04:40:04;97412.59;;;2.34;72.85
71917;BME280;59793;46.506;6.674;2023-12-07T04:42:30;97463.03;;;2.57;73.81
71917;BME280;59793;46.506;6.674;2023-12-07T04:44:56;97470.56;;;2.59;73.64
71917;BME280;59793;46.506;6.674;2023-12-07T04:47:23;97481.31;;;2.71;72.98
71917;BME280;59793;46.506;6.674;2023-12-07T04:50:08;97472.13;;;2.79;72.61
71917;BME280;59793;46.506;6.674;2023-12-07T04:52:35;97437.41;;;2.70;71.38
71917;BME280;59793;46.506;6.674;2023-12-07T04:55:03;97425.03;;;2.80;71.30
71917;BME280;59793;46.506;6.674;2023-12-07T04:57:34;97438.25;;;2.84;69.92
71917;BME280;59793;46.506;6.674;2023-12-07T05:00:01;97463.00;;;2.81;70.92
71917;BME280;59793;46.506;6.674;2023-12-07T05:02:31;97363.72;;;1.88;72.10
71917;BME280;59793;46.506;6.674;2023-12-07T05:04:56;97460.47;;;2.28;73.19
71917;BME280;59793;46.506;6.674;2023-12-07T05:07:22;97466.75;;;2.27;73.54
71917;BME280;59793;46.506;6.674;2023-12-07T05:09:50;97375.28;;;1.72;73.31
71917;BME280;59793;46.506;6.674;2023-12-07T05:12:17;97470.44;;;2.45;73.22
71917;BME280;59793;46.506;6.674;2023-12-07T05:14:44;97446.00;;;2.46;72.17
71917;BME280;59793;46.506;6.674;2023-12-07T05:17:10;97444.59;;;2.54;71.67
71917;BME280;59793;46.506;6.674;2023-12-07T05:19:36;97461.09;;;2.44;72.21
71917;BME280;59793;46.506;6.674;2023-12-07T05:22:02;97440.34;;;2.15;72.62
71917;BME280;59793;46.506;6.674;2023-12-07T05:24:28;97441.84;;;2.21;73.21
71917;BME280;59793;46.506;6.674;2023-12-07T05:26:53;97395.22;;;2.06;72.82
71917;BME280;59793;46.506;6.674;2023-12-07T05:29:26;97368.81;;;1.99;72.48
71917;BME280;59793;46.506;6.674;2023-12-07T05:31:53;97388.47;;;2.29;71.97
71917;BME280;59793;46.506;6.674;2023-12-07T05:34:18;97422.44;;;2.37;71.62
71917;BME280;59793;46.506;6.674;2023-12-07T05:36:45;97479.81;;;2.89;71.02
71917;BME280;59793;46.506;6.674;2023-12-07T05:39:19;97393.78;;;2.19;70.86
71917;BME280;59793;46.506;6.674;2023-12-07T05:41:50;97370.34;;;2.00;71.52
71917;BME280;59793;46.506;6.674;2023-12-07T05:44:15;97440.78;;;2.70;70.73
71917;BME280;59793;46.506;6.674;2023-12-07T05:46:46;97410.03;;;2.53;69.49
71917;BME280;59793;46.506;6.674;2023-12-07T05:49:12;97422.00;;;2.73;68.71
71917;BME280;59793;46.506;6.674;2023-12-07T05:51:38;97435.69;;;2.79;68.84
71917;BME280;59793;46.506;6.674;2023-12-07T05:54:08;97351.88;;;1.77;71.29
71917;BME280;59793;46.506;6.674;2023-12-07T05:56:33;97399.00;;;1.95;72.40
71917;BME280;59793;46.506;6.674;2023-12-07T05:59:00;97291.22;;;1.15;73.02
71917;BME280;59793;46.506;6.674;2023-12-07T06:01:26;97406.81;;;1.89;72.65
71917;BME280;59793;46.506;6.674;2023-12-07T06:03:53;97440.31;;;2.20;71.79
71917;BME280;59793;46.506;6.674;2023-12-07T06:06:20;97308.19;;;1.55;71.09
71917;BME280;59793;46.506;6.674;2023-12-07T06:08:47;97413.16;;;2.31;70.87
71917;BME280;59793;46.506;6.674;2023-12-07T06:13:44;97285.78;;;1.40;70.44
71917;BME280;59793;46.506;6.674;2023-12-07T06:16:15;97380.91;;;2.08;68.63
71917;BME280;59793;46.506;6.674;2023-12-07T06:19:01;97412.53;;;2.39;69.19
71917;BME280;59793;46.506;6.674;2023-12-07T06:21:26;97402.66;;;2.36;68.88
71917;BME280;59793;46.506;6.674;2023-12-07T06:23:59;97311.31;;;1.81;68.46
71917;BME280;59793;46.506;6.674;2023-12-07T06:26:41;97407.97;;;2.50;68.32
71917;BME280;59793;46.506;6.674;2023-12-07T06:29:15;97448.69;;;2.36;69.99
71917;BME280;59793;46.506;6.674;2023-12-07T06:31:45;97423.28;;;1.80;72.03
71917;BME280;59793;46.506;6.674;2023-12-07T06:34:52;97368.91;;;1.30;72.77
71917;BME280;59793;46.506;6.674;2023-12-07T06:37:17;97451.41;;;2.02;70.82
71917;BME280;59793;46.506;6.674;2023-12-07T06:39:44;97449.59;;;2.26;68.77
71917;BME280;59793;46.506;6.674;2023-12-07T06:42:13;97463.13;;;2.47;69.08
71917;BME280;59793;46.506;6.674;2023-12-07T06:45:00;97468.28;;;2.76;68.26
71917;BME280;59793;46.506;6.674;2023-12-07T06:47:31;97290.91;;;1.70;67.92
71917;BME280;59793;46.506;6.674;2023-12-07T07:01:13;97436.03;;;1.76;72.19
71917;BME280;59793;46.506;6.674;2023-12-07T07:04:07;97473.69;;;2.08;71.97
71917;BME280;59793;46.506;6.674;2023-12-07T07:32:39;97450.41;;;4.24;64.64
71917;BME280;59793;46.506;6.674;2023-12-07T07:45:26;97490.53;;;10.04;47.93
71917;BME280;59793;46.506;6.674;2023-12-07T07:48:08;97475.09;;;9.28;48.14
71917;BME280;59793;46.506;6.674;2023-12-07T07:50:34;97451.31;;;8.53;50.14
71917;BME280;59793;46.506;6.674;2023-12-07T07:53:02;97334.47;;;6.97;51.21
71917;BME280;59793;46.506;6.674;2023-12-07T07:55:30;97384.06;;;6.67;53.60
71917;BME280;59793;46.506;6.674;2023-12-07T07:57:59;97413.13;;;5.78;56.32
71917;BME280;59793;46.506;6.674;2023-12-07T08:16:17;97438.28;;;5.20;60.96
71917;BME280;59793;46.506;6.674;2023-12-07T08:19:05;97323.06;;;4.26;61.84
71917;BME280;59793;46.506;6.674;2023-12-07T08:21:58;97433.31;;;4.96;62.28
71917;BME280;59793;46.506;6.674;2023-12-07T08:24:24;97390.25;;;4.71;62.23
71917;BME280;59793;46.506;6.674;2023-12-07T08:27:07;97386.38;;;4.68;62.39
71917;BME280;59793;46.506;6.674;2023-12-07T08:29:44;97435.00;;;5.14;61.83
71917;BME280;59793;46.506;6.674;2023-12-07T08:39:58;97408.84;;;5.06;58.79
71917;BME280;59793;46.506;6.674;2023-12-07T08:42:25;97302.16;;;4.04;59.28
71917;BME280;59793;46.506;6.674;2023-12-07T08:47:37;97415.78;;;4.60;60.08
71917;BME280;59793;46.506;6.674;2023-12-07T09:00:30;97317.66;;;5.80;53.33
71917;BME280;59793;46.506;6.674;2023-12-07T09:10:42;97342.91;;;7.20;50.53
71917;BME280;59793;46.506;6.674;2023-12-07T09:13:08;97387.19;;;7.86;50.64
71917;BME280;59793;46.506;6.674;2023-12-07T09:15:34;97381.59;;;7.87;49.23
71917;BME280;59793;46.506;6.674;2023-12-07T09:18:03;97389.84;;;7.69;50.52
71917;BME280;59793;46.506;6.674;2023-12-07T09:20:30;97391.81;;;7.89;50.65
71917;BME280;59793;46.506;6.674;2023-12-07T09:22:56;97386.66;;;8.01;51.34
71917;BME280;59793;46.506;6.674;2023-12-07T09:25:23;97363.66;;;7.60;53.42
71917;BME280;59793;46.506;6.674;2023-12-07T09:27:48;97342.47;;;7.74;52.47
71917;BME280;59793;46.506;6.674;2023-12-07T09:30:14;97287.59;;;7.22;51.46
71917;BME280;59793;46.506;6.674;2023-12-07T09:32:45;97273.41;;;7.23;51.98
71917;BME280;59793;46.506;6.674;2023-12-07T09:40:24;97403.81;;;7.00;56.24
71917;BME280;59793;46.506;6.674;2023-12-07T09:43:13;97389.31;;;7.28;55.85
71917;BME280;59793;46.506;6.674;2023-12-07T09:45:40;97402.88;;;7.22;55.12
71917;BME280;59793;46.506;6.674;2023-12-07T09:48:09;97390.53;;;6.96;55.49
71917;BME280;59793;46.506;6.674;2023-12-07T09:51:17;97284.44;;;5.81;57.08
71917;BME280;59793;46.506;6.674;2023-12-07T09:53:45;97351.78;;;6.15;55.98
71917;BME280;59793;46.506;6.674;2023-12-07T09:56:15;97368.94;;;6.47;50.84
71917;BME280;59793;46.506;6.674;2023-12-07T10:11:50;97309.06;;;9.50;44.89
71917;BME280;59793;46.506;6.674;2023-12-07T10:14:31;97364.06;;;10.13;45.99
71917;BME280;59793;46.506;6.674;2023-12-07T10:19:39;97258.47;;;9.90;44.72
71917;BME280;59793;46.506;6.674;2023-12-07T10:22:17;97260.66;;;9.51;45.95
71917;BME280;59793;46.506;6.674;2023-12-07T10:24:43;97353.63;;;9.92;46.83
71917;BME280;59793;46.506;6.674;2023-12-07T10:27:09;97358.03;;;10.13;47.02
71917;BME280;59793;46.506;6.674;2023-12-07T10:29:39;97285.78;;;9.16;46.60
71917;BME280;59793;46.506;6.674;2023-12-07T10:32:05;97369.16;;;9.61;46.94
71917;BME280;59793;46.506;6.674;2023-12-07T10:34:34;97359.53;;;9.65;44.12
71917;BME280;59793;46.506;6.674;2023-12-07T10:37:07;97336.31;;;9.00;41.61
71917;BME280;59793;46.506;6.674;2023-12-07T10:39:35;97289.41;;;8.57;42.49
71917;BME280;59793;46.506;6.674;2023-12-07T10:42:08;97246.56;;;7.94;43.50
71917;BME280;59793;46.506;6.674;2023-12-07T10:44:36;97323.34;;;8.32;44.18
71917;BME280;59793;46.506;6.674;2023-12-07T10:47:06;97304.44;;;8.48;44.06
71917;BME280;59793;46.506;6.674;2023-12-07T10:49:39;97228.84;;;7.90;44.79
71917;BME280;59793;46.506;6.674;2023-12-07T10:52:27;97328.19;;;8.51;45.12
71917;BME280;59793;46.506;6.674;2023-12-07T10:55:17;97350.69;;;8.82;46.00
71917;BME280;59793;46.506;6.674;2023-12-07T10:57:56;97329.13;;;8.76;47.00
71917;BME280;59793;46.506;6.674;2023-12-07T11:00:25;97344.69;;;9.15;47.23
71917;BME280;59793;46.506;6.674;2023-12-07T11:03:00;97347.41;;;9.39;46.88
71917;BME280;59793;46.506;6.674;2023-12-07T11:05:26;97342.91;;;9.40;46.78
71917;BME280;59793;46.506;6.674;2023-12-07T11:07:58;97202.66;;;8.66;46.61
71917;BME280;59793;46.506;6.674;2023-12-07T11:10:47;97329.41;;;9.29;46.81
71917;BME280;59793;46.506;6.674;2023-12-07T11:13:45;97313.88;;;9.36;44.28
71917;BME280;59793;46.506;6.674;2023-12-07T11:21:39;97236.41;;;9.21;44.82
71917;BME280;59793;46.506;6.674;2023-12-07T11:24:16;97313.28;;;9.88;45.46
71917;BME280;59793;46.506;6.674;2023-12-07T11:26:43;97315.03;;;9.96;45.15
71917;BME280;59793;46.506;6.674;2023-12-07T11:29:40;97264.31;;;9.14;42.46
71917;BME280;59793;46.506;6.674;2023-12-07T11:32:05;97250.81;;;8.91;41.92
71917;BME280;59793;46.506;6.674;2023-12-07T11:34:42;97299.66;;;9.37;41.00
71917;BME280;59793;46.506;6.674;2023-12-07T11:37:09;97253.50;;;9.27;40.43
71917;BME280;59793;46.506;6.674;2023-12-07T11:39:51;97242.91;;;9.48;41.30
71917;BME280;59793;46.506;6.674;2023-12-07T11:42:28;97266.97;;;10.24;40.74
71917;BME280;59793;46.506;6.674;2023-12-07T11:47:34;97284.34;;;10.65;44.26
71917;BME280;59793;46.506;6.674;2023-12-07T11:50:36;97295.63;;;10.94;44.65
71917;BME280;59793;46.506;6.674;2023-12-07T11:53:05;97284.06;;;11.42;44.10
71917;BME280;59793;46.506;6.674;2023-12-07T11:55:33;97279.53;;;12.06;42.25
71917;BME280;59793;46.506;6.674;2023-12-07T11:57:58;97292.91;;;11.98;41.45
71917;BME280;59793;46.506;6.674;2023-12-07T12:00:25;97252.13;;;11.79;40.80
71917;BME280;59793;46.506;6.674;2023-12-07T12:02:51;97229.63;;;11.34;41.35
71917;BME280;59793;46.506;6.674;2023-12-07T12:05:41;97278.31;;;11.84;42.21
71917;BME280;59793;46.506;6.674;2023-12-07T12:08:09;97281.28;;;12.18;40.80
71917;BME280;59793;46.506;6.674;2023-12-07T12:10:52;97256.59;;;12.26;39.71
71917;BME280;59793;46.506;6.674;2023-12-07T12:13:26;97277.94;;;12.37;39.96
71917;BME280;59793;46.506;6.674;2023-12-07T12:15:54;97246.53;;;11.81;40.88
71917;BME280;59793;46.506;6.674;2023-12-07T12:18:41;97176.53;;;11.71;40.36
71917;BME280;59793;46.506;6.674;2023-12-07T12:21:23;97190.03;;;11.50;40.82
71917;BME280;59793;46.506;6.674;2023-12-07T12:23:50;97239.06;;;10.47;43.53
71917;BME280;59793;46.506;6.674;2023-12-07T12:26:16;97199.72;;;9.49;45.90
71917;BME280;59793;46.506;6.674;2023-12-07T12:28:44;97236.72;;;9.20;47.07
71917;BME280;59793;46.506;6.674;2023-12-07T12:31:11;97157.41;;;8.27;47.85
71917;BME280;59793;46.506;6.674;2023-12-07T12:33:40;97216.41;;;8.83;47.67
71917;BME280;59793;46.506;6.674;2023-12-07T12:36:10;97164.47;;;8.35;49.48
71917;BME280;59793;46.506;6.674;2023-12-07T12:38:38;97253.84;;;9.63;48.22
71917;BME280;59793;46.506;6.674;2023-12-07T12:41:05;97221.56;;;10.27;47.02
71917;BME280;59793;46.506;6.674;2023-12-07T12:43:35;97195.81;;;11.08;44.79
71917;BME280;59793;46.506;6.674;2023-12-07T12:46:02;97159.59;;;12.07;42.30
71917;BME280;59793;46.506;6.674;2023-12-07T12:48:29;97193.19;;;13.57;39.98
71917;BME280;59793;46.506;6.674;2023-12-07T12:50:55;97201.13;;;13.57;39.98
71917;BME280;59793;46.506;6.674;2023-12-07T12:53:22;97214.72;;;13.82;39.66
71917;BME280;59793;46.506;6.674;2023-12-07T12:55:48;97213.06;;;13.24;36.81
71917;BME280;59793;46.506;6.674;2023-12-07T12:58:14;97179.28;;;12.72;36.77
71917;BME280;59793;46.506;6.674;2023-12-07T13:00:49;97210.31;;;11.81;38.31
71917;BME280;59793;46.506;6.674;2023-12-07T13:03:19;97200.38;;;11.75;38.19
71917;BME280;59793;46.506;6.674;2023-12-07T13:05:44;97207.34;;;11.99;37.27
71917;BME280;59793;46.506;6.674;2023-12-07T13:08:10;97201.56;;;11.77;37.34
71917;BME280;59793;46.506;6.674;2023-12-07T13:10:38;97157.84;;;11.95;37.03
71917;BME280;59793;46.506;6.674;2023-12-07T13:13:08;97216.59;;;13.09;35.62
71917;BME280;59793;46.506;6.674;2023-12-07T13:15:36;97084.59;;;13.83;32.88
71917;BME280;59793;46.506;6.674;2023-12-07T13:18:04;97150.09;;;16.12;30.03
71917;BME280;59793;46.506;6.674;2023-12-07T13:20:39;97147.63;;;16.91;29.08
71917;BME280;59793;46.506;6.674;2023-12-07T13:23:05;97183.75;;;17.28;28.58
71917;BME280;59793;46.506;6.674;2023-12-07T13:25:31;97083.38;;;16.82;27.59
71917;BME280;59793;46.506;6.674;2023-12-07T13:28:17;97134.69;;;18.52;27.35
71917;BME280;59793;46.506;6.674;2023-12-07T13:30:44;97121.44;;;18.38;27.67
71917;BME280;59793;46.506;6.674;2023-12-07T13:33:10;97155.22;;;19.97;25.49
71917;BME280;59793;46.506;6.674;2023-12-07T13:35:37;97151.03;;;22.18;23.76
71917;BME280;59793;46.506;6.674;2023-12-07T13:38:11;97126.78;;;21.62;23.65
71917;BME280;59793;46.506;6.674;2023-12-07T13:43:12;97070.25;;;23.85;20.09
71917;BME280;59793;46.506;6.674;2023-12-07T13:45:41;97083.19;;;25.27;18.88
71917;BME280;59793;46.506;6.674;2023-12-07T13:48:08;97125.31;;;23.23;21.80
71917;BME280;59793;46.506;6.674;2023-12-07T13:50:37;97108.28;;;24.13;20.93
71917;BME280;59793;46.506;6.674;2023-12-07T13:53:03;97125.56;;;24.54;20.76
71917;BME280;59793;46.506;6.674;2023-12-07T13:55:28;97089.13;;;24.88;19.98
71917;BME280;59793;46.506;6.674;2023-12-07T13:57:55;97104.72;;;24.93;19.74
71917;BME280;59793;46.506;6.674;2023-12-07T14:00:22;97099.69;;;24.69;18.22
71917;BME280;59793;46.506;6.674;2023-12-07T14:02:49;97074.78;;;24.27;18.78
71917;BME280;59793;46.506;6.674;2023-12-07T14:05:15;97101.94;;;22.71;20.47
71917;BME280;59793;46.506;6.674;2023-12-07T14:07:43;97055.34;;;22.28;21.30
71917;BME280;59793;46.506;6.674;2023-12-07T14:10:14;97084.19;;;21.24;21.58
71917;BME280;59793;46.506;6.674;2023-12-07T14:12:40;97049.09;;;19.56;23.79
71917;BME280;59793;46.506;6.674;2023-12-07T14:15:07;97057.59;;;18.06;26.33
71917;BME280;59793;46.506;6.674;2023-12-07T14:17:44;97076.50;;;17.24;27.27
71917;BME280;59793;46.506;6.674;2023-12-07T14:20:42;97042.31;;;16.51;28.16
71917;BME280;59793;46.506;6.674;2023-12-07T14:23:09;97078.75;;;16.50;28.73
71917;BME280;59793;46.506;6.674;2023-12-07T14:28:06;97030.13;;;13.52;33.82
71917;BME280;59793;46.506;6.674;2023-12-07T14:30:32;97053.19;;;12.99;33.57
71917;BME280;59793;46.506;6.674;2023-12-07T14:32:57;97013.41;;;12.19;34.89
71917;BME280;59793;46.506;6.674;2023-12-07T14:35:24;97069.94;;;12.14;36.30
71917;BME280;59793;46.506;6.674;2023-12-07T14:37:51;97068.63;;;11.85;37.17
71917;BME280;59793;46.506;6.674;2023-12-07T14:40:17;96958.25;;;10.43;38.45
71917;BME280;59793;46.506;6.674;2023-12-07T14:42:44;97018.56;;;10.32;39.22
71917;BME280;59793;46.506;6.674;2023-12-07T14:45:10;97058.75;;;10.45;39.56
71917;BME280;59793;46.506;6.674;2023-12-07T14:47:36;96967.78;;;9.88;39.69
71917;BME280;59793;46.506;6.674;2023-12-07T14:50:03;97080.59;;;10.45;40.31
71917;BME280;59793;46.506;6.674;2023-12-07T14:52:31;97032.44;;;10.17;40.29
71917;BME280;59793;46.506;6.674;2023-12-07T14:54:57;97059.25;;;10.06;40.89
71917;BME280;59793;46.506;6.674;2023-12-07T14:57:22;97000.50;;;9.46;41.59
71917;BME280;59793;46.506;6.674;2023-12-07T14:59:48;97014.66;;;8.89;42.46
71917;BME280;59793;46.506;6.674;2023-12-07T15:02:15;96990.38;;;8.80;43.41
71917;BME280;59793;46.506;6.674;2023-12-07T15:04:41;97041.97;;;9.37;44.81
71917;BME280;59793;46.506;6.674;2023-12-07T15:09:42;97030.09;;;9.15;44.30
71917;BME280;59793;46.506;6.674;2023-12-07T15:12:09;96983.47;;;8.38;44.88
71917;BME280;59793;46.506;6.674;2023-12-07T15:17:23;96878.31;;;7.74;46.20
71917;BME280;59793;46.506;6.674;2023-12-07T15:20:10;96950.59;;;8.08;47.50
71917;BME280;59793;46.506;6.674;2023-12-07T15:22:36;96903.56;;;7.78;47.58
71917;BME280;59793;46.506;6.674;2023-12-07T15:25:05;97029.78;;;8.55;48.36
71917;BME280;59793;46.506;6.674;2023-12-07T15:27:38;96882.47;;;7.29;48.63
71917;BME280;59793;46.506;6.674;2023-12-07T15:30:13;96944.81;;;7.57;49.41
71917;BME280;59793;46.506;6.674;2023-12-07T15:32:39;96992.16;;;7.73;50.15